Terminal Aerodrome Forecast
Issued by NWS Lubbock, TX

Home | Current Version | Previous Version | Text Only | Print | Product List | Glossary On
Versions: 1 2 3 4 5 6 7 8 9 10 11 12 13 14 15 16
443
FTUS44 KLUB 201722
TAFLBB
TAF
KLBB 201722Z 2018/2118 25011KT P6SM SKC
     FM211700 27020G30KT 4SM BLDU FEW250=

USA.gov is the U.S. government's official web portal to all federal, state and local government web resources and services.